createdAt,value
2017-02-05T00:00:43.540Z,25.96
2017-02-05T00:01:53.863Z,25.67
2017-02-05T00:03:04.434Z,25.67
2017-02-05T00:04:14.753Z,25.67
2017-02-05T00:05:25.091Z,25.77
2017-02-05T00:06:35.019Z,26.06
2017-02-05T00:07:44.955Z,26.15
2017-02-05T00:08:55.921Z,25.86
2017-02-05T00:10:06.248Z,26.15
2017-02-05T00:11:16.566Z,25.96
2017-02-05T00:12:27.300Z,26.15
2017-02-05T00:13:38.020Z,25.96
2017-02-05T00:14:48.586Z,26.06
2017-02-05T00:15:58.912Z,25.96
2017-02-05T00:17:09.248Z,25.96
2017-02-05T00:18:19.576Z,25.96
2017-02-05T00:19:29.885Z,25.96
2017-02-05T00:20:40.125Z,25.96
2017-02-05T00:21:50.054Z,25.86
2017-02-05T00:23:00.379Z,25.86
2017-02-05T00:24:10.711Z,25.96
2017-02-05T00:25:20.673Z,25.96
2017-02-05T00:26:31.693Z,25.86
2017-02-05T00:27:42.016Z,26.15
2017-02-05T00:28:52.721Z,25.86
2017-02-05T00:30:02.653Z,25.86
2017-02-05T00:31:13.367Z,25.86
2017-02-05T00:32:23.941Z,25.96
2017-02-05T00:33:34.699Z,25.77
2017-02-05T00:34:45.466Z,25.77
2017-02-05T00:35:55.384Z,25.77
2017-02-05T00:37:06.093Z,25.96
2017-02-05T00:38:16.676Z,25.86
2017-02-05T00:39:26.991Z,25.86
2017-02-05T00:40:37.317Z,25.77
2017-02-05T00:41:47.243Z,25.77
2017-02-05T00:42:57.956Z,25.77
2017-02-05T00:44:08.536Z,26.15
2017-02-05T00:45:18.866Z,25.96
2017-02-05T00:46:28.796Z,25.96
2017-02-05T00:47:39.514Z,25.96
2017-02-05T00:48:50.228Z,25.57
2017-02-05T00:50:00.065Z,25.48
2017-02-05T00:51:10.779Z,25.67
2017-02-05T00:52:20.715Z,25.57
2017-02-05T00:53:30.644Z,25.57
2017-02-05T00:54:41.365Z,25.57
2017-02-05T00:55:51.934Z,25.67
2017-02-05T00:57:02.651Z,25.48
2017-02-05T00:58:12.977Z,25.48
2017-02-05T00:59:23.282Z,25.57
2017-02-05T01:00:34.008Z,25.48
2017-02-05T01:01:44.642Z,25.57
2017-02-05T01:02:54.569Z,25.57
2017-02-05T01:04:04.503Z,25.48
2017-02-05T01:05:14.817Z,25.57
2017-02-05T01:06:25.184Z,25.86
2017-02-05T01:07:35.367Z,25.57
2017-02-05T01:08:46.091Z,25.67
2017-02-05T01:09:56.415Z,25.67
2017-02-05T01:11:06.732Z,25.57
2017-02-05T01:12:17.054Z,25.57
2017-02-05T01:13:27.620Z,25.57
2017-02-05T01:14:37.938Z,25.67
2017-02-05T01:15:47.080Z,25.67
2017-02-05T01:16:57.788Z,25.67
2017-02-05T01:18:08.098Z,25.67
2017-02-05T01:19:19.067Z,25.67
2017-02-05T01:20:28.200Z,25.77
2017-02-05T01:21:38.942Z,25.67
2017-02-05T01:22:49.258Z,25.67
2017-02-05T01:23:59.982Z,25.77
2017-02-05T01:25:10.952Z,25.86
2017-02-05T01:26:20.475Z,25.96
2017-02-05T01:27:30.427Z,25.77
2017-02-05T01:28:40.782Z,25.67
2017-02-05T01:29:51.095Z,25.77
2017-02-05T01:31:02.059Z,25.67
2017-02-05T01:32:12.772Z,25.57
2017-02-05T01:33:23.092Z,25.67
2017-02-05T01:34:33.423Z,25.67
2017-02-05T01:35:44.132Z,25.67
2017-02-05T01:36:54.700Z,25.77
2017-02-05T01:38:04.629Z,25.77
2017-02-05T01:39:14.942Z,25.77
2017-02-05T01:40:25.272Z,25.77
2017-02-05T01:41:35.198Z,25.67
2017-02-05T01:42:45.770Z,25.67
2017-02-05T01:43:56.090Z,25.67
2017-02-05T01:45:06.017Z,25.67
2017-02-05T01:46:16.726Z,25.67
2017-02-05T01:47:27.440Z,25.86
2017-02-05T01:48:38.067Z,25.86
2017-02-05T01:49:48.775Z,25.86
2017-02-05T01:50:58.699Z,25.77
2017-02-05T01:52:09.016Z,25.86
2017-02-05T01:53:19.322Z,25.86
2017-02-05T01:54:29.880Z,25.67
2017-02-05T01:55:39.792Z,25.77
2017-02-05T01:56:50.111Z,25.77
2017-02-05T01:58:00.413Z,25.77
2017-02-05T01:59:10.721Z,25.77
2017-02-05T02:00:21.684Z,25.77
2017-02-05T02:01:31.199Z,25.77
2017-02-05T02:02:41.518Z,25.77
2017-02-05T02:03:52.238Z,25.77
2017-02-05T02:05:02.157Z,25.77
2017-02-05T02:06:12.766Z,25.96
2017-02-05T02:07:22.687Z,25.86
2017-02-05T02:08:33.392Z,25.77
2017-02-05T02:09:43.323Z,25.67
2017-02-05T02:10:53.630Z,25.77
2017-02-05T02:12:07.509Z,25.67
2017-02-05T02:13:17.835Z,25.77
2017-02-05T02:14:28.149Z,25.77
2017-02-05T02:15:38.856Z,25.86
2017-02-05T02:16:49.186Z,25.96
2017-02-05T02:18:00.132Z,25.48
2017-02-05T02:19:10.831Z,25.77
2017-02-05T02:20:20.761Z,25.57
2017-02-05T02:21:31.467Z,25.86
2017-02-05T02:22:42.175Z,25.86
2017-02-05T02:23:53.132Z,25.77
2017-02-05T02:25:03.845Z,25.86
2017-02-05T02:26:14.558Z,25.86
2017-02-05T02:27:24.488Z,25.57
2017-02-05T02:28:35.186Z,25.96
2017-02-05T02:29:45.755Z,25.96
2017-02-05T02:30:56.069Z,25.96
2017-02-05T02:32:06.786Z,25.77
2017-02-05T02:33:17.109Z,25.86
2017-02-05T02:34:27.416Z,25.77
2017-02-05T02:35:37.588Z,25.86
2017-02-05T02:36:48.308Z,25.86
2017-02-05T02:37:58.635Z,25.77
2017-02-05T02:39:09.346Z,25.67
2017-02-05T02:40:19.312Z,25.67
2017-02-05T02:41:29.919Z,25.67
2017-02-05T02:42:40.277Z,25.77
2017-02-05T02:43:50.991Z,25.86
2017-02-05T02:45:00.898Z,25.86
2017-02-05T02:46:11.219Z,25.96
2017-02-05T02:47:21.845Z,25.86
2017-02-05T02:48:31.768Z,25.86
2017-02-05T02:49:42.283Z,25.77
2017-02-05T02:50:52.997Z,25.86
2017-02-05T02:52:03.338Z,25.96
2017-02-05T02:53:13.903Z,25.67
2017-02-05T02:54:24.219Z,25.77
2017-02-05T02:55:34.530Z,25.77
2017-02-05T02:56:44.060Z,25.77
2017-02-05T02:57:53.973Z,25.77
2017-02-05T02:59:04.928Z,25.86
2017-02-05T03:00:15.238Z,25.86
2017-02-05T03:01:25.946Z,25.86
2017-02-05T03:02:36.267Z,25.77
2017-02-05T03:03:46.582Z,25.86
2017-02-05T03:04:56.757Z,25.96
2017-02-05T03:06:06.674Z,25.86
2017-02-05T03:07:16.626Z,25.86
2017-02-05T03:08:26.938Z,25.86
2017-02-05T03:09:37.651Z,25.86
2017-02-05T03:10:47.472Z,25.86
2017-02-05T03:11:57.783Z,25.86
2017-02-05T03:13:08.512Z,25.86
2017-02-05T03:14:19.228Z,25.77
2017-02-05T03:15:29.939Z,25.86
2017-02-05T03:16:40.898Z,25.86
2017-02-05T03:17:51.218Z,25.86
2017-02-05T03:19:01.139Z,25.86
2017-02-05T03:20:11.850Z,25.77
2017-02-05T03:21:21.777Z,25.57
2017-02-05T03:22:31.937Z,25.77
2017-02-05T03:23:41.459Z,25.86
2017-02-05T03:24:51.776Z,25.77
2017-02-05T03:26:02.096Z,25.96
2017-02-05T03:27:12.397Z,25.86
2017-02-05T03:28:23.025Z,25.48
2017-02-05T03:29:33.725Z,26.06
2017-02-05T03:30:43.648Z,25.48
2017-02-05T03:31:54.438Z,25.57
2017-02-05T03:33:03.968Z,25.57
2017-02-05T03:34:14.586Z,25.77
2017-02-05T03:35:24.902Z,25.77
2017-02-05T03:36:34.822Z,26.06
2017-02-05T03:37:45.531Z,25.86
2017-02-05T03:38:56.259Z,25.86
2017-02-05T03:40:06.418Z,25.77
2017-02-05T03:41:16.333Z,25.86
2017-02-05T03:42:27.049Z,25.86
2017-02-05T03:43:36.580Z,25.57
2017-02-05T03:44:46.909Z,25.57
2017-02-05T03:45:57.487Z,25.57
2017-02-05T03:47:07.800Z,25.57
2017-02-05T03:48:18.525Z,25.77
2017-02-05T03:49:28.429Z,25.86
2017-02-05T03:50:37.954Z,25.77
2017-02-05T03:51:48.925Z,25.86
2017-02-05T03:52:59.235Z,25.77
2017-02-05T03:54:09.943Z,25.67
2017-02-05T03:55:19.863Z,25.96
2017-02-05T03:56:30.171Z,25.86
2017-02-05T03:57:40.743Z,25.77
2017-02-05T03:58:51.459Z,25.86
2017-02-05T04:00:01.396Z,25.86
2017-02-05T04:01:12.103Z,25.77
2017-02-05T04:02:22.807Z,25.86
2017-02-05T04:03:33.377Z,25.86
2017-02-05T04:04:43.690Z,25.86
2017-02-05T04:05:53.623Z,25.57
2017-02-05T04:07:03.936Z,25.48
2017-02-05T04:08:14.647Z,25.86
2017-02-05T04:09:25.604Z,25.77
2017-02-05T04:10:35.920Z,25.48
2017-02-05T04:11:46.231Z,25.86
2017-02-05T04:12:56.930Z,25.48
2017-02-05T04:14:06.856Z,25.86
2017-02-05T04:15:17.427Z,25.96
2017-02-05T04:16:27.731Z,25.86
2017-02-05T04:17:38.035Z,25.67
2017-02-05T04:18:48.336Z,25.67
2017-02-05T04:19:58.644Z,25.67
2017-02-05T04:21:09.601Z,25.96
2017-02-05T04:22:19.953Z,25.86
2017-02-05T04:23:30.273Z,25.48
2017-02-05T04:24:40.996Z,25.86
2017-02-05T04:25:51.357Z,25.86
2017-02-05T04:27:01.940Z,25.86
2017-02-05T04:28:11.466Z,25.77
2017-02-05T04:29:21.786Z,25.86
2017-02-05T04:30:32.494Z,25.86
2017-02-05T04:31:42.808Z,25.86
2017-02-05T04:32:53.377Z,25.86
2017-02-05T04:34:04.090Z,25.86
2017-02-05T04:35:14.807Z,25.77
2017-02-05T04:36:25.115Z,25.77
2017-02-05T04:37:35.031Z,25.77
2017-02-05T04:38:45.594Z,25.86
2017-02-05T04:39:56.301Z,25.77
2017-02-05T04:41:07.015Z,25.96
2017-02-05T04:42:16.938Z,25.96
2017-02-05T04:43:27.649Z,25.86
2017-02-05T04:44:38.209Z,25.77
2017-02-05T04:45:48.577Z,25.67
2017-02-05T04:46:58.490Z,25.77
2017-02-05T04:48:08.798Z,25.86
2017-02-05T04:49:19.118Z,25.86
2017-02-05T04:50:29.688Z,25.77
2017-02-05T04:51:40.004Z,25.77
2017-02-05T04:52:50.331Z,25.67
2017-02-05T04:54:01.025Z,25.86
2017-02-05T04:55:11.484Z,25.96
2017-02-05T04:56:21.264Z,25.77
2017-02-05T04:57:31.182Z,25.86
2017-02-05T04:58:41.490Z,25.86
2017-02-05T04:59:51.451Z,25.77
2017-02-05T05:01:00.590Z,25.67
2017-02-05T05:02:09.968Z,25.67
2017-02-05T05:03:19.888Z,25.67
2017-02-05T05:04:29.801Z,25.67
2017-02-05T05:05:40.114Z,25.86
2017-02-05T05:06:50.427Z,25.77
2017-02-05T05:08:00.238Z,25.86
2017-02-05T05:09:10.552Z,25.96
2017-02-05T05:10:20.075Z,25.77
2017-02-05T05:11:30.398Z,25.77
2017-02-05T05:12:41.146Z,25.77
2017-02-05T05:13:52.107Z,25.67
2017-02-05T05:15:02.024Z,25.86
2017-02-05T05:16:12.727Z,25.67
2017-02-05T05:17:22.639Z,25.77
2017-02-05T05:18:32.951Z,25.77
2017-02-05T05:19:43.515Z,25.77
2017-02-05T05:20:53.825Z,25.96
2017-02-05T05:22:04.532Z,25.86
2017-02-05T05:23:13.666Z,25.86
2017-02-05T05:24:24.420Z,25.86
2017-02-05T05:25:35.041Z,25.67
2017-02-05T05:26:45.354Z,25.77
2017-02-05T05:27:54.880Z,25.77
2017-02-05T05:29:05.579Z,25.77
2017-02-05T05:30:15.092Z,25.67
2017-02-05T05:31:25.675Z,25.77
2017-02-05T05:32:36.387Z,25.67
2017-02-05T05:33:45.911Z,25.67
2017-02-05T05:34:56.615Z,25.77
2017-02-05T05:36:06.544Z,25.48
2017-02-05T05:37:17.351Z,25.67
2017-02-05T05:38:27.668Z,25.67
2017-02-05T05:39:37.985Z,25.77
2017-02-05T05:40:48.298Z,25.67
2017-02-05T05:41:58.619Z,25.67
2017-02-05T05:43:09.177Z,25.86
2017-02-05T05:44:19.882Z,25.86
2017-02-05T05:45:30.219Z,25.57
2017-02-05T05:46:40.529Z,25.67
2017-02-05T05:47:50.445Z,25.67
2017-02-05T05:49:01.397Z,25.57
2017-02-05T05:50:11.326Z,25.67
2017-02-05T05:51:22.036Z,25.67
2017-02-05T05:52:31.948Z,25.67
2017-02-05T05:53:42.259Z,25.86
2017-02-05T05:54:52.023Z,25.67
2017-02-05T05:56:01.543Z,25.67
2017-02-05T05:57:12.256Z,25.86
2017-02-05T05:58:22.572Z,25.77
2017-02-05T05:59:33.290Z,25.57
2017-02-05T06:00:43.858Z,25.96
2017-02-05T06:01:54.179Z,25.67
2017-02-05T06:03:03.702Z,25.57
2017-02-05T06:04:14.012Z,25.67
2017-02-05T06:05:24.732Z,25.77
2017-02-05T06:06:35.346Z,25.67
2017-02-05T06:07:45.675Z,25.67
2017-02-05T06:08:56.006Z,25.77
2017-02-05T06:10:06.316Z,25.77
2017-02-05T06:11:16.620Z,25.67
2017-02-05T06:12:27.192Z,25.57
2017-02-05T06:13:37.913Z,25.67
2017-02-05T06:14:48.226Z,25.48
2017-02-05T06:15:58.533Z,25.48
2017-02-05T06:17:09.231Z,26.06
2017-02-05T06:18:19.843Z,25.86
2017-02-05T06:19:29.758Z,25.67
2017-02-05T06:20:40.473Z,25.77
2017-02-05T06:21:50.793Z,25.96
2017-02-05T06:23:01.116Z,25.77
2017-02-05T06:24:11.679Z,25.67
2017-02-05T06:25:22.007Z,25.67
2017-02-05T06:26:32.311Z,25.77
2017-02-05T06:27:42.635Z,25.77
2017-02-05T06:28:52.555Z,25.77
2017-02-05T06:30:03.170Z,25.77
2017-02-05T06:31:13.482Z,25.77
2017-02-05T06:32:23.405Z,25.67
2017-02-05T06:33:33.325Z,25.86
2017-02-05T06:34:44.041Z,25.77
2017-02-05T06:35:55.051Z,25.86
2017-02-05T06:37:05.360Z,25.77
2017-02-05T06:38:15.275Z,25.67
2017-02-05T06:39:25.591Z,25.67
2017-02-05T06:40:35.904Z,25.86
2017-02-05T06:41:46.863Z,25.77
2017-02-05T06:42:57.572Z,25.86
2017-02-05T06:44:08.282Z,25.86
2017-02-05T06:45:18.602Z,25.86
2017-02-05T06:46:28.522Z,25.77
2017-02-05T06:47:39.092Z,25.86
2017-02-05T06:48:49.400Z,25.96
2017-02-05T06:49:59.718Z,25.77
2017-02-05T06:51:10.440Z,25.86
2017-02-05T06:52:21.144Z,25.77
2017-02-05T06:53:32.106Z,25.77
2017-02-05T06:54:42.835Z,25.86
2017-02-05T06:55:53.547Z,25.86
2017-02-05T06:57:03.863Z,25.77
2017-02-05T06:58:14.174Z,25.86
2017-02-05T06:59:23.994Z,25.77
2017-02-05T07:00:34.304Z,25.48
2017-02-05T07:01:44.616Z,25.48
2017-02-05T07:02:55.332Z,25.86
2017-02-05T07:04:05.664Z,25.86
2017-02-05T07:05:16.286Z,25.86
2017-02-05T07:06:26.597Z,25.77
2017-02-05T07:07:36.904Z,25.86
2017-02-05T07:08:47.607Z,25.86
2017-02-05T07:09:57.918Z,25.57
2017-02-05T07:11:09.338Z,25.86
2017-02-05T07:12:19.265Z,25.86
2017-02-05T07:13:29.190Z,25.96
2017-02-05T07:14:39.525Z,25.86
2017-02-05T07:15:49.056Z,26.06
2017-02-05T07:16:59.279Z,25.86
2017-02-05T07:18:09.196Z,25.96
2017-02-05T07:19:19.566Z,25.86
2017-02-05T07:20:30.275Z,25.57
2017-02-05T07:21:40.594Z,25.48
2017-02-05T07:22:51.552Z,25.57
2017-02-05T07:24:01.882Z,25.48
2017-02-05T07:25:12.201Z,25.57
2017-02-05T07:26:22.505Z,25.96
2017-02-05T07:27:32.824Z,25.96
2017-02-05T07:28:42.992Z,25.48
2017-02-05T07:29:52.899Z,25.86
2017-02-05T07:31:03.453Z,25.67
2017-02-05T07:32:12.978Z,25.77
2017-02-05T07:33:23.677Z,25.77
2017-02-05T07:34:33.850Z,25.86
2017-02-05T07:35:44.563Z,25.57
2017-02-05T07:36:54.883Z,26.06
2017-02-05T07:38:04.813Z,25.86
2017-02-05T07:39:15.118Z,25.57
2017-02-05T07:40:26.088Z,25.86
2017-02-05T07:41:35.212Z,25.48
2017-02-05T07:42:45.531Z,25.96
2017-02-05T07:43:55.444Z,25.86
2017-02-05T07:45:05.773Z,25.96
2017-02-05T07:46:16.401Z,25.96
2017-02-05T07:47:26.735Z,25.96
2017-02-05T07:48:37.053Z,25.57
2017-02-05T07:49:47.770Z,25.57
2017-02-05T07:50:58.091Z,25.57
2017-02-05T07:52:09.056Z,25.57
2017-02-05T07:53:19.386Z,25.57
2017-02-05T07:54:29.306Z,25.86
2017-02-05T07:55:40.013Z,25.86
2017-02-05T07:56:49.947Z,25.57
2017-02-05T07:58:00.571Z,25.57
2017-02-05T07:59:10.494Z,25.67
2017-02-05T08:00:20.805Z,25.57
2017-02-05T08:01:31.118Z,25.86
2017-02-05T08:02:41.832Z,25.48
2017-02-05T08:03:52.401Z,25.57
2017-02-05T08:05:02.712Z,25.48
2017-02-05T08:06:13.035Z,25.48
2017-02-05T08:07:23.362Z,25.48
2017-02-05T08:08:34.085Z,25.67
2017-02-05T08:09:44.709Z,25.57
2017-02-05T08:10:55.432Z,25.57
2017-02-05T08:12:05.361Z,25.57
2017-02-05T08:13:16.066Z,25.67
2017-02-05T08:14:26.397Z,25.57
2017-02-05T08:15:37.016Z,25.48
2017-02-05T08:16:46.539Z,25.67
2017-02-05T08:17:56.861Z,25.38
2017-02-05T08:19:07.186Z,25.48
2017-02-05T08:20:17.888Z,25.57
2017-02-05T08:21:28.446Z,25.48
2017-02-05T08:22:38.774Z,25.67
2017-02-05T08:23:49.499Z,25.48
2017-02-05T08:24:59.819Z,25.38
2017-02-05T08:26:10.155Z,25.38
2017-02-05T08:27:20.334Z,25.57
2017-02-05T08:28:30.274Z,25.57
2017-02-05T08:29:40.974Z,25.48
2017-02-05T08:30:51.307Z,25.48
2017-02-05T08:32:01.687Z,25.48
2017-02-05T08:33:12.702Z,25.48
2017-02-05T08:34:23.032Z,25.38
2017-02-05T08:35:33.346Z,25.38
2017-02-05T08:36:44.058Z,25.48
2017-02-05T08:37:53.637Z,25.57
2017-02-05T08:39:03.809Z,25.38
2017-02-05T08:40:14.126Z,25.48
2017-02-05T08:41:24.848Z,25.48
2017-02-05T08:42:35.165Z,25.48
2017-02-05T08:43:45.883Z,25.38
2017-02-05T08:44:56.506Z,25.48
2017-02-05T08:46:07.219Z,25.57
2017-02-05T08:47:17.928Z,25.67
2017-02-05T08:48:28.250Z,25.57
2017-02-05T08:49:38.961Z,25.67
2017-02-05T08:50:49.991Z,25.48
2017-02-05T08:52:00.702Z,25.57
2017-02-05T08:53:11.026Z,25.57
2017-02-05T08:54:20.941Z,25.48
2017-02-05T08:55:31.675Z,25.67
2017-02-05T08:56:42.252Z,25.48
2017-02-05T08:57:52.976Z,25.57
2017-02-05T08:59:03.709Z,25.57
2017-02-05T09:00:14.026Z,25.67
2017-02-05T09:01:24.339Z,25.67
2017-02-05T09:02:35.303Z,25.86
2017-02-05T09:03:45.623Z,25.57
2017-02-05T09:04:55.953Z,25.29
2017-02-05T09:06:06.675Z,25.38
2017-02-05T09:07:17.390Z,25.67
2017-02-05T09:08:28.013Z,25.48
2017-02-05T09:09:38.740Z,25.57
2017-02-05T09:10:49.459Z,25.67
2017-02-05T09:11:59.391Z,25.57
2017-02-05T09:13:09.735Z,25.38
2017-02-05T09:14:20.304Z,25.57
2017-02-05T09:15:30.640Z,25.57
2017-02-05T09:16:41.361Z,25.57
2017-02-05T09:17:52.102Z,25.48
2017-02-05T09:19:02.812Z,25.57
2017-02-05T09:20:13.040Z,25.57
2017-02-05T09:21:23.774Z,25.67
2017-02-05T09:22:34.484Z,25.38
2017-02-05T09:23:45.198Z,25.48
2017-02-05T09:24:55.914Z,25.57
2017-02-05T09:26:06.493Z,25.57
2017-02-05T09:27:16.852Z,25.48
2017-02-05T09:28:27.189Z,25.57
2017-02-05T09:29:37.921Z,25.48
2017-02-05T09:30:48.249Z,25.48
2017-02-05T09:31:59.261Z,25.57
2017-02-05T09:33:09.184Z,25.57
2017-02-05T09:34:19.898Z,25.57
2017-02-05T09:35:30.231Z,25.57
2017-02-05T09:36:40.957Z,25.57
2017-02-05T09:37:51.148Z,25.57
2017-02-05T09:39:01.470Z,25.57
2017-02-05T09:40:12.191Z,25.57
2017-02-05T09:41:22.511Z,25.57
2017-02-05T09:42:32.845Z,25.67
2017-02-05T09:43:43.806Z,25.48
2017-02-05T09:44:54.137Z,25.57
2017-02-05T09:46:04.870Z,25.48
2017-02-05T09:47:15.587Z,25.67
2017-02-05T09:48:25.936Z,25.57
2017-02-05T09:49:36.578Z,25.48
2017-02-05T09:50:46.893Z,25.67
2017-02-05T09:51:57.219Z,25.57
2017-02-05T09:53:07.534Z,25.57
2017-02-05T09:54:18.275Z,25.57
2017-02-05T09:55:28.451Z,25.57
2017-02-05T09:56:39.197Z,25.38
2017-02-05T09:57:49.909Z,25.57
2017-02-05T09:58:59.445Z,25.57
2017-02-05T10:00:09.783Z,25.86
2017-02-05T10:01:20.395Z,25.48
2017-02-05T10:02:30.312Z,25.57
2017-02-05T10:03:41.048Z,25.38
2017-02-05T10:04:52.012Z,25.48
2017-02-05T10:06:02.344Z,25.38
2017-02-05T10:07:12.968Z,25.57
2017-02-05T10:08:22.904Z,25.57
2017-02-05T10:09:33.235Z,25.48
2017-02-05T10:10:43.953Z,25.48
2017-02-05T10:11:54.699Z,25.57
2017-02-05T10:13:05.304Z,25.48
2017-02-05T10:14:16.022Z,25.29
2017-02-05T10:15:26.748Z,25.57
2017-02-05T10:16:37.470Z,25.57
2017-02-05T10:17:47.384Z,25.86
2017-02-05T10:18:57.964Z,25.57
2017-02-05T10:20:08.306Z,25.57
2017-02-05T10:21:19.028Z,25.48
2017-02-05T10:22:29.751Z,25.48
2017-02-05T10:23:39.671Z,25.67
2017-02-05T10:24:49.855Z,25.67
2017-02-05T10:25:59.763Z,25.67
2017-02-05T10:27:10.065Z,25.57
2017-02-05T10:28:19.597Z,25.57
2017-02-05T10:29:29.112Z,25.57
2017-02-05T10:30:39.328Z,25.57
2017-02-05T10:31:50.028Z,25.48
2017-02-05T10:33:00.340Z,25.57
2017-02-05T10:34:10.684Z,25.57
2017-02-05T10:35:21.003Z,25.57
2017-02-05T10:36:31.184Z,25.57
2017-02-05T10:37:41.091Z,25.48
2017-02-05T10:38:51.387Z,25.57
2017-02-05T10:40:02.099Z,25.38
2017-02-05T10:41:12.011Z,25.38
2017-02-05T10:42:22.952Z,25.38
2017-02-05T10:43:33.252Z,25.38
2017-02-05T10:44:43.939Z,25.48
2017-02-05T10:45:53.859Z,25.38
2017-02-05T10:47:04.206Z,25.38
2017-02-05T10:48:14.813Z,25.48
2017-02-05T10:49:24.718Z,25.67
2017-02-05T10:50:35.044Z,25.29
2017-02-05T10:51:45.368Z,25.48
2017-02-05T10:52:56.078Z,25.57
2017-02-05T10:54:07.281Z,25.57
2017-02-05T10:55:16.803Z,25.57
2017-02-05T10:56:26.718Z,25.48
2017-02-05T10:57:36.632Z,25.57
2017-02-05T10:58:46.184Z,25.57
2017-02-05T10:59:57.142Z,25.57
2017-02-05T11:01:07.445Z,25.48
2017-02-05T11:02:17.772Z,25.57
2017-02-05T11:03:27.704Z,25.48
2017-02-05T11:04:37.627Z,25.57
2017-02-05T11:05:48.190Z,25.48
2017-02-05T11:06:58.109Z,25.48
2017-02-05T11:08:08.825Z,25.96
2017-02-05T11:09:18.357Z,25.57
2017-02-05T11:10:29.101Z,25.57
2017-02-05T11:11:40.060Z,25.67
2017-02-05T11:12:49.602Z,25.77
2017-02-05T11:14:00.338Z,25.57
2017-02-05T11:15:10.273Z,25.48
2017-02-05T11:16:20.613Z,25.86
2017-02-05T11:17:31.160Z,25.86
2017-02-05T11:18:41.071Z,25.86
2017-02-05T11:19:51.378Z,25.86
2017-02-05T11:21:01.684Z,25.77
2017-02-05T11:22:12.415Z,25.77
2017-02-05T11:23:22.993Z,25.77
2017-02-05T11:24:33.338Z,25.57
2017-02-05T11:25:43.301Z,25.96
2017-02-05T11:26:53.241Z,25.86
2017-02-05T11:28:03.957Z,25.86
2017-02-05T11:29:14.963Z,25.77
2017-02-05T11:30:24.478Z,25.48
2017-02-05T11:31:34.395Z,25.86
2017-02-05T11:32:44.715Z,25.86
2017-02-05T11:33:55.424Z,25.96
2017-02-05T11:35:05.575Z,25.86
2017-02-05T11:36:15.871Z,25.96
2017-02-05T11:37:26.173Z,25.86
2017-02-05T11:38:36.480Z,25.86
2017-02-05T11:39:47.189Z,25.96
2017-02-05T11:40:57.767Z,25.77
2017-02-05T11:42:07.293Z,25.48
2017-02-05T11:43:18.023Z,25.48
2017-02-05T11:44:28.339Z,25.57
2017-02-05T11:45:38.287Z,25.86
2017-02-05T11:46:49.278Z,25.86
2017-02-05T11:47:59.986Z,25.86
2017-02-05T11:49:10.325Z,25.86
2017-02-05T11:50:20.255Z,25.48
2017-02-05T11:51:30.185Z,25.86
2017-02-05T11:52:40.793Z,25.96
2017-02-05T11:53:51.099Z,25.96
2017-02-05T11:55:01.814Z,25.77
2017-02-05T11:56:12.131Z,25.86
2017-02-05T11:57:21.637Z,25.77
2017-02-05T11:58:32.216Z,25.87
2017-02-05T11:59:42.654Z,25.86
2017-02-05T12:00:52.986Z,25.86
2017-02-05T12:02:03.686Z,25.86
2017-02-05T12:03:13.615Z,25.77
2017-02-05T12:04:24.571Z,25.86
2017-02-05T12:05:34.537Z,25.96
2017-02-05T12:06:44.875Z,25.86
2017-02-05T12:07:54.790Z,25.86
2017-02-05T12:09:04.698Z,25.86
2017-02-05T12:10:15.644Z,25.77
2017-02-05T12:11:25.968Z,25.86
2017-02-05T12:12:36.668Z,25.49
2017-02-05T12:13:47.420Z,25.77
2017-02-05T12:14:56.565Z,25.86
2017-02-05T12:16:07.533Z,25.87
2017-02-05T12:17:17.876Z,25.77
2017-02-05T12:18:28.802Z,25.86
2017-02-05T12:19:39.525Z,25.77
2017-02-05T12:20:49.491Z,25.78
2017-02-05T12:22:00.484Z,25.67
2017-02-05T12:23:10.044Z,25.86
2017-02-05T12:24:19.996Z,25.87
2017-02-05T12:25:30.732Z,25.78
2017-02-05T12:26:40.660Z,25.78
2017-02-05T12:27:51.662Z,25.77
2017-02-05T12:29:02.014Z,25.68
2017-02-05T12:30:12.343Z,25.77
2017-02-05T12:31:23.062Z,25.86
2017-02-05T12:32:33.370Z,25.87
2017-02-05T12:33:44.375Z,25.87
2017-02-05T12:34:54.288Z,25.78
2017-02-05T12:36:04.197Z,25.78
2017-02-05T12:37:14.880Z,25.86
2017-02-05T12:38:25.188Z,25.78
2017-02-05T12:39:35.346Z,25.59
2017-02-05T12:40:44.869Z,25.59
2017-02-05T12:41:55.173Z,25.29
2017-02-05T12:43:05.072Z,25.38
2017-02-05T12:44:14.581Z,25.49
2017-02-05T12:45:25.143Z,25.49
2017-02-05T12:46:35.846Z,25.49
2017-02-05T12:47:46.552Z,25.49
2017-02-05T12:48:57.268Z,25.3
2017-02-05T12:50:07.600Z,25.2
2017-02-05T12:51:18.797Z,25.2
2017-02-05T12:52:29.525Z,25.3
2017-02-05T12:53:39.847Z,25.2
2017-02-05T12:54:50.554Z,25.29
2017-02-05T12:56:00.853Z,25.11
2017-02-05T12:57:11.436Z,25.3
2017-02-05T12:58:21.807Z,25.2
2017-02-05T12:59:32.106Z,25.3
2017-02-05T13:00:42.445Z,25.11
2017-02-05T13:01:52.355Z,25.01
2017-02-05T13:03:02.904Z,25.2
2017-02-05T13:04:12.809Z,25.11
2017-02-05T13:05:22.722Z,25.11
2017-02-05T13:06:33.423Z,25.11
2017-02-05T13:07:43.722Z,25.2
2017-02-05T13:08:53.934Z,25.3
2017-02-05T13:10:03.863Z,25.11
2017-02-05T13:11:14.554Z,25.11
2017-02-05T13:12:24.882Z,25.01
2017-02-05T13:13:35.199Z,24.9
2017-02-05T13:14:45.397Z,25.11
2017-02-05T13:15:54.914Z,25.11
2017-02-05T13:17:04.835Z,25.01
2017-02-05T13:18:15.149Z,25.3
2017-02-05T13:19:25.877Z,25.11
2017-02-05T13:20:36.051Z,25.01
2017-02-05T13:21:46.364Z,25.01
2017-02-05T13:22:57.070Z,25.11
2017-02-05T13:24:07.381Z,25
2017-02-05T13:25:18.082Z,25.11
2017-02-05T13:26:28.691Z,25.11
2017-02-05T13:27:38.993Z,25.01
2017-02-05T13:28:49.311Z,25.11
2017-02-05T13:29:59.245Z,25.2
2017-02-05T13:31:09.563Z,25.11
2017-02-05T13:32:19.744Z,25.11
2017-02-05T13:33:30.451Z,25
2017-02-05T13:34:40.365Z,24.9
2017-02-05T13:35:50.281Z,25.1
2017-02-05T13:37:00.200Z,25.1
2017-02-05T13:38:11.166Z,25.19
2017-02-05T13:39:21.507Z,25.19
2017-02-05T13:40:32.328Z,25.19
2017-02-05T13:41:42.645Z,25.19
2017-02-05T13:42:53.379Z,25.29
2017-02-05T13:44:04.385Z,25.48
2017-02-05T13:45:14.306Z,25.57
2017-02-05T13:46:24.636Z,25.48
2017-02-05T13:47:34.962Z,25.29
2017-02-05T13:48:44.876Z,25.57
2017-02-05T13:49:55.828Z,25.57
2017-02-05T13:51:06.524Z,25.86
2017-02-05T13:52:17.258Z,25.86
2017-02-05T13:53:26.790Z,25.77
2017-02-05T13:54:37.563Z,25.67
2017-02-05T13:55:48.521Z,25.77
2017-02-05T13:56:58.041Z,25.67
2017-02-05T13:58:07.947Z,25.86
2017-02-05T13:59:18.247Z,25.86
2017-02-05T14:00:28.974Z,25.77
2017-02-05T14:01:38.821Z,25.67
2017-02-05T14:02:49.174Z,25.57
2017-02-05T14:03:59.500Z,25.67
2017-02-05T14:05:09.426Z,25.67
2017-02-05T14:06:20.154Z,25.67
2017-02-05T14:07:30.335Z,25.67
2017-02-05T14:08:41.041Z,25.48
2017-02-05T14:09:51.366Z,25.67
2017-02-05T14:11:02.100Z,25.57
2017-02-05T14:12:12.832Z,25.57
2017-02-05T14:13:23.380Z,25.67
2017-02-05T14:14:33.302Z,25.86
2017-02-05T14:15:43.612Z,25.57
2017-02-05T14:16:53.933Z,25.57
2017-02-05T14:18:04.250Z,25.86
2017-02-05T14:19:14.793Z,25.96
2017-02-05T14:20:25.513Z,26.15
2017-02-05T14:21:35.834Z,25.96
2017-02-05T14:22:46.143Z,26.15
2017-02-05T14:23:56.444Z,25.96
2017-02-05T14:25:07.397Z,26.15
2017-02-05T14:26:16.904Z,25.96
2017-02-05T14:27:27.614Z,25.67
2017-02-05T14:28:37.120Z,26.15
2017-02-05T14:29:47.026Z,26.06
2017-02-05T14:30:57.570Z,26.06
2017-02-05T14:32:07.887Z,25.96
2017-02-05T14:33:18.578Z,26.15
2017-02-05T14:34:28.086Z,25.86
2017-02-05T14:35:38.002Z,26.06
2017-02-05T14:36:48.586Z,26.06
2017-02-05T14:37:58.902Z,26.06
2017-02-05T14:39:09.223Z,25.96
2017-02-05T14:40:19.937Z,25.96
2017-02-05T14:41:30.674Z,25.86
2017-02-05T14:42:40.923Z,25.86
2017-02-05T14:43:50.842Z,26.15
2017-02-05T14:45:01.571Z,26.06
2017-02-05T14:46:11.929Z,26.06
2017-02-05T14:47:22.648Z,26.06
2017-02-05T14:48:32.417Z,26.15
2017-02-05T14:49:42.327Z,25.77
2017-02-05T14:50:52.662Z,26.15
2017-02-05T14:52:03.388Z,26.06
2017-02-05T14:53:13.332Z,26.15
2017-02-05T14:54:24.304Z,26.25
2017-02-05T14:55:35.036Z,26.25
2017-02-05T14:56:45.000Z,26.25
2017-02-05T14:57:55.734Z,26.25
2017-02-05T14:59:06.057Z,26.06
2017-02-05T15:00:17.071Z,26.06
2017-02-05T15:01:27.800Z,26.15
2017-02-05T15:02:38.123Z,26.15
2017-02-05T15:03:48.423Z,26.25
2017-02-05T15:04:59.106Z,26.15
2017-02-05T15:06:09.661Z,26.15
2017-02-05T15:07:19.563Z,26.25